createdAt,value
2019-02-02T00:01:10.696Z,95.20
2019-02-02T00:03:40.105Z,95.00
2019-02-02T00:06:09.362Z,94.91
2019-02-02T00:08:38.733Z,95.33
2019-02-02T00:11:07.731Z,95.23
2019-02-02T00:13:36.753Z,94.89
2019-02-02T00:16:06.475Z,94.82
2019-02-02T00:18:36.229Z,94.66
2019-02-02T00:21:05.499Z,94.67
2019-02-02T00:23:34.679Z,94.86
2019-02-02T00:26:03.939Z,95.02
2019-02-02T00:28:36.114Z,94.95
2019-02-02T00:31:05.693Z,94.86
2019-02-02T00:33:35.083Z,94.97
2019-02-02T00:36:04.323Z,95.03
2019-02-02T00:38:33.697Z,95.09
2019-02-02T00:41:03.014Z,95.19
2019-02-02T00:43:33.132Z,95.50
2019-02-02T00:46:02.258Z,95.38
2019-02-02T00:48:34.840Z,95.38
2019-02-02T00:51:03.936Z,95.45
2019-02-02T00:53:36.247Z,95.32
2019-02-02T00:56:05.487Z,95.30
2019-02-02T00:58:34.889Z,95.18
2019-02-02T01:01:04.142Z,94.91
2019-02-02T01:03:33.995Z,94.83
2019-02-02T01:06:04.958Z,94.52
2019-02-02T01:08:35.013Z,94.43
2019-02-02T01:11:05.107Z,94.25
2019-02-02T01:13:34.478Z,93.99
2019-02-02T01:16:03.550Z,93.98
2019-02-02T01:18:32.595Z,94.02
2019-02-02T01:21:01.774Z,93.73
2019-02-02T01:23:32.521Z,93.79
2019-02-02T01:26:01.487Z,93.90
2019-02-02T01:28:30.541Z,93.90
2019-02-02T01:30:59.887Z,93.65
2019-02-02T01:33:29.255Z,93.60
2019-02-02T01:35:58.254Z,93.48
2019-02-02T01:38:27.405Z,93.69
2019-02-02T01:40:56.446Z,93.73
2019-02-02T01:43:25.459Z,93.61
2019-02-02T01:45:55.189Z,93.22
2019-02-02T01:48:24.211Z,93.63
2019-02-02T01:50:53.294Z,93.77
2019-02-02T01:53:22.796Z,93.78
2019-02-02T01:55:52.136Z,94.01
2019-02-02T01:58:21.225Z,93.98
2019-02-02T02:00:50.293Z,93.93
2019-02-02T02:03:19.396Z,93.77
2019-02-02T02:05:48.512Z,93.72
2019-02-02T02:08:17.593Z,93.81
2019-02-02T02:10:46.623Z,94.01
2019-02-02T02:13:15.645Z,93.82
2019-02-02T02:15:45.016Z,93.82
2019-02-02T02:18:14.493Z,93.83
2019-02-02T02:20:43.894Z,93.74
2019-02-02T02:23:13.353Z,93.79
2019-02-02T02:25:42.763Z,94.03
2019-02-02T02:28:12.200Z,94.37
2019-02-02T02:30:41.215Z,94.16
2019-02-02T02:33:10.308Z,94.52
2019-02-02T02:35:39.337Z,94.41
2019-02-02T02:38:08.701Z,94.51
2019-02-02T02:40:37.730Z,94.50
2019-02-02T02:43:06.768Z,94.58
2019-02-02T02:45:35.823Z,94.19
2019-02-02T02:48:05.595Z,94.17
2019-02-02T02:50:35.312Z,94.28
2019-02-02T02:53:04.283Z,94.27
2019-02-02T02:55:33.325Z,94.33
2019-02-02T02:58:02.657Z,94.33
2019-02-02T03:00:31.698Z,94.07
2019-02-02T03:03:01.157Z,94.28
2019-02-02T03:05:30.180Z,94.44
2019-02-02T03:07:59.502Z,94.37
2019-02-02T03:10:28.501Z,94.38
2019-02-02T03:12:57.669Z,94.51
2019-02-02T03:15:26.764Z,94.46
2019-02-02T03:17:56.130Z,94.71
2019-02-02T03:20:25.232Z,94.69
2019-02-02T03:22:55.032Z,94.80
2019-02-02T03:25:24.763Z,94.67
2019-02-02T03:27:54.127Z,94.70
2019-02-02T03:30:23.317Z,94.58
2019-02-02T03:32:52.456Z,94.58
2019-02-02T03:35:22.747Z,94.65
2019-02-02T03:37:51.780Z,94.40
2019-02-02T03:40:21.920Z,94.24
2019-02-02T03:42:51.278Z,94.13
2019-02-02T03:45:21.910Z,94.05
2019-02-02T03:47:52.758Z,93.83
2019-02-02T03:50:22.246Z,93.83
2019-02-02T03:52:51.312Z,94.00
2019-02-02T03:55:20.478Z,93.84
2019-02-02T03:57:49.577Z,93.56
2019-02-02T04:00:19.812Z,93.24
2019-02-02T04:02:49.133Z,93.11
2019-02-02T04:05:20.416Z,93.01
2019-02-02T04:07:49.488Z,92.72
2019-02-02T04:10:19.023Z,92.99
2019-02-02T04:12:48.698Z,93.33
2019-02-02T04:15:18.655Z,92.79
2019-02-02T04:17:47.734Z,92.89
2019-02-02T04:20:21.520Z,92.66
2019-02-02T04:22:50.957Z,92.69
2019-02-02T04:25:21.036Z,92.91
2019-02-02T04:27:50.066Z,92.76
2019-02-02T04:30:21.255Z,92.71
2019-02-02T04:32:50.644Z,92.63
2019-02-02T04:35:19.708Z,92.63
2019-02-02T04:37:48.769Z,92.52
2019-02-02T04:40:18.806Z,92.44
2019-02-02T04:42:47.940Z,92.62
2019-02-02T04:45:17.354Z,92.92
2019-02-02T04:47:46.424Z,92.44
2019-02-02T04:50:16.992Z,92.54
2019-02-02T04:52:47.039Z,92.45
2019-02-02T04:55:17.431Z,92.77
2019-02-02T04:57:47.155Z,92.58
2019-02-02T05:00:21.596Z,92.46
2019-02-02T05:02:51.120Z,92.53
2019-02-02T05:05:20.323Z,92.65
2019-02-02T05:07:50.127Z,92.87
2019-02-02T05:10:20.567Z,92.79
2019-02-02T05:12:49.878Z,92.62
2019-02-02T05:15:19.935Z,92.94
2019-02-02T05:17:49.006Z,92.94
2019-02-02T05:20:18.455Z,92.91
2019-02-02T05:22:47.908Z,93.23
2019-02-02T05:25:16.916Z,93.12
2019-02-02T05:27:46.412Z,92.95
2019-02-02T05:30:34.568Z,92.84
2019-02-02T05:33:03.738Z,93.09
2019-02-02T05:35:32.904Z,93.29
2019-02-02T05:38:02.411Z,93.38
2019-02-02T05:40:31.570Z,93.41
2019-02-02T05:43:01.211Z,93.19
2019-02-02T05:45:30.209Z,93.05
2019-02-02T05:47:59.322Z,92.79
2019-02-02T05:50:28.298Z,92.83
2019-02-02T05:52:57.494Z,92.93
2019-02-02T05:55:27.066Z,92.59
2019-02-02T05:57:56.109Z,92.85
2019-02-02T06:00:33.108Z,93.19
2019-02-02T06:03:02.498Z,93.40
2019-02-02T06:05:31.566Z,93.43
2019-02-02T06:08:00.953Z,93.41
2019-02-02T06:10:30.100Z,93.56
2019-02-02T06:12:59.153Z,93.17
2019-02-02T06:15:29.102Z,93.09
2019-02-02T06:17:58.706Z,92.97
2019-02-02T06:20:27.704Z,92.36
2019-02-02T06:22:56.821Z,92.06
2019-02-02T06:25:25.896Z,92.41
2019-02-02T06:27:54.965Z,92.59
2019-02-02T06:30:24.980Z,92.08
2019-02-02T06:32:54.602Z,92.20
2019-02-02T06:35:23.726Z,92.42
2019-02-02T06:37:52.892Z,92.46
2019-02-02T06:40:22.411Z,92.54
2019-02-02T06:42:51.482Z,92.83
2019-02-02T06:45:28.954Z,93.15
2019-02-02T06:47:57.983Z,92.93
2019-02-02T06:50:27.078Z,92.92
2019-02-02T06:52:56.147Z,92.63
2019-02-02T06:55:25.383Z,92.67
2019-02-02T06:57:54.902Z,92.82
2019-02-02T07:00:26.538Z,92.77
2019-02-02T07:02:55.861Z,93.01
2019-02-02T07:05:24.866Z,92.87
2019-02-02T07:07:53.899Z,92.81
2019-02-02T07:10:24.530Z,92.99
2019-02-02T07:12:53.556Z,92.49
2019-02-02T07:15:24.940Z,92.58
2019-02-02T07:17:53.954Z,92.70
2019-02-02T07:20:23.312Z,92.46
2019-02-02T07:22:53.006Z,92.60
2019-02-02T07:25:22.032Z,92.65
2019-02-02T07:27:51.558Z,92.88
2019-02-02T07:30:28.581Z,92.68
2019-02-02T07:32:52.536Z,92.53
2019-02-02T07:35:22.311Z,92.90
2019-02-02T07:37:51.871Z,92.89
2019-02-02T07:40:21.727Z,92.90
2019-02-02T07:42:50.830Z,93.08
2019-02-02T07:45:25.416Z,93.28
2019-02-02T07:47:54.826Z,93.46
2019-02-02T07:50:24.346Z,93.12
2019-02-02T07:52:53.487Z,92.91
2019-02-02T07:55:23.409Z,93.00
2019-02-02T07:57:52.884Z,93.09
2019-02-02T08:00:40.961Z,93.04
2019-02-02T08:03:10.215Z,93.33
2019-02-02T08:05:41.998Z,92.82
2019-02-02T08:08:11.214Z,92.63
2019-02-02T08:10:40.278Z,92.69
2019-02-02T08:13:09.320Z,92.66
2019-02-02T08:15:38.582Z,92.88
2019-02-02T08:18:07.817Z,92.72
2019-02-02T08:20:36.882Z,92.24
2019-02-02T08:23:06.289Z,92.03
2019-02-02T08:25:35.775Z,92.27
2019-02-02T08:28:08.163Z,92.51
2019-02-02T08:30:37.500Z,92.22
2019-02-02T08:33:07.712Z,92.35
2019-02-02T08:35:36.868Z,92.65
2019-02-02T08:38:06.686Z,92.12
2019-02-02T08:40:35.793Z,92.30
2019-02-02T08:43:05.440Z,92.01
2019-02-02T08:45:34.870Z,92.01
2019-02-02T08:48:03.934Z,92.13
2019-02-02T08:50:35.364Z,92.10
2019-02-02T08:53:04.663Z,92.05
2019-02-02T08:55:34.201Z,91.83
2019-02-02T08:58:03.553Z,92.14
2019-02-02T09:00:33.911Z,92.19
2019-02-02T09:03:03.224Z,91.97
2019-02-02T09:05:32.459Z,91.67
2019-02-02T09:08:04.685Z,91.67
2019-02-02T09:10:33.932Z,92.22
2019-02-02T09:13:03.710Z,92.21
2019-02-02T09:15:33.119Z,92.11
2019-02-02T09:18:02.193Z,91.71
2019-02-02T09:20:31.500Z,91.90
2019-02-02T09:23:06.233Z,91.78
2019-02-02T09:25:31.698Z,91.54
2019-02-02T09:28:00.876Z,91.55
2019-02-02T09:30:39.618Z,91.80
2019-02-02T09:33:08.902Z,92.05
2019-02-02T09:35:37.957Z,92.17
2019-02-02T09:38:07.834Z,92.04
2019-02-02T09:40:37.132Z,91.89
2019-02-02T09:43:06.512Z,91.93
2019-02-02T09:45:35.576Z,92.06
2019-02-02T09:48:04.765Z,92.42
2019-02-02T09:50:35.256Z,91.94
2019-02-02T09:53:04.629Z,91.05
2019-02-02T09:55:33.721Z,91.10
2019-02-02T09:58:08.616Z,90.95
2019-02-02T10:00:37.298Z,91.00
2019-02-02T10:03:06.399Z,91.11
2019-02-02T10:05:35.431Z,90.98
2019-02-02T10:08:04.616Z,90.44
2019-02-02T10:10:35.170Z,90.62
2019-02-02T10:13:06.141Z,89.65
2019-02-02T10:15:35.314Z,89.68
2019-02-02T10:18:04.649Z,89.61
2019-02-02T10:20:34.092Z,89.77
2019-02-02T10:23:03.384Z,89.30
2019-02-02T10:25:32.384Z,89.26
2019-02-02T10:28:01.610Z,89.67
2019-02-02T10:30:35.630Z,89.90
2019-02-02T10:33:04.722Z,90.16
2019-02-02T10:35:34.864Z,89.39
2019-02-02T10:38:04.441Z,89.85
2019-02-02T10:40:33.780Z,89.85
2019-02-02T10:43:02.950Z,89.37
2019-02-02T10:45:32.412Z,89.61
2019-02-02T10:48:01.526Z,89.73
2019-02-02T10:50:30.881Z,89.46
2019-02-02T10:52:59.943Z,89.84
2019-02-02T10:55:28.961Z,89.91
2019-02-02T10:57:58.272Z,88.84
2019-02-02T11:00:29.469Z,88.87
2019-02-02T11:02:59.174Z,88.18
2019-02-02T11:05:28.503Z,88.51
2019-02-02T11:07:57.992Z,87.82
2019-02-02T11:10:28.815Z,87.63
2019-02-02T11:13:06.083Z,88.65
2019-02-02T11:15:41.679Z,88.57
2019-02-02T11:18:11.521Z,88.34
2019-02-02T11:20:40.725Z,87.81
2019-02-02T11:23:10.341Z,88.05
2019-02-02T11:25:39.907Z,87.73
2019-02-02T11:28:09.353Z,87.78
2019-02-02T11:30:38.641Z,87.82
2019-02-02T11:33:07.779Z,87.63
2019-02-02T11:35:36.812Z,87.78
2019-02-02T11:38:05.823Z,87.54
2019-02-02T11:40:36.312Z,86.71
2019-02-02T11:43:05.616Z,85.92
2019-02-02T11:45:34.818Z,86.61
2019-02-02T11:48:03.969Z,85.82
2019-02-02T11:50:33.382Z,86.20
2019-02-02T11:53:02.832Z,86.36
2019-02-02T11:55:32.486Z,85.40
2019-02-02T11:58:01.714Z,85.69
2019-02-02T12:00:32.883Z,85.36
2019-02-02T12:03:04.361Z,85.44
2019-02-02T12:05:33.345Z,85.45
2019-02-02T12:08:02.734Z,85.91
2019-02-02T12:10:31.935Z,85.25
2019-02-02T12:13:00.935Z,84.34
2019-02-02T12:15:29.975Z,85.21
2019-02-02T12:17:59.327Z,85.09
2019-02-02T12:20:28.345Z,85.23
2019-02-02T12:22:57.404Z,84.93
2019-02-02T12:25:26.423Z,84.64
2019-02-02T12:27:55.435Z,85.37
2019-02-02T12:30:27.263Z,85.75
2019-02-02T12:32:56.349Z,86.02
2019-02-02T12:35:26.223Z,87.18
2019-02-02T12:37:55.274Z,88.28
2019-02-02T12:40:25.221Z,88.59
2019-02-02T12:42:54.655Z,89.06
2019-02-02T12:45:44.808Z,88.68
2019-02-02T12:48:14.177Z,88.65
2019-02-02T12:50:43.204Z,88.46
2019-02-02T12:53:12.411Z,88.62
2019-02-02T12:55:41.421Z,88.59
2019-02-02T12:58:11.191Z,88.16
2019-02-02T13:00:40.552Z,88.99
2019-02-02T13:03:09.607Z,88.69
2019-02-02T13:05:39.409Z,88.64
2019-02-02T13:08:08.461Z,89.29
2019-02-02T13:10:37.473Z,89.62
2019-02-02T13:13:06.497Z,90.39
2019-02-02T13:15:35.654Z,90.20
2019-02-02T13:18:05.091Z,89.86
2019-02-02T13:20:35.067Z,89.96
2019-02-02T13:23:04.600Z,89.36
2019-02-02T13:25:33.646Z,88.79
2019-02-02T13:28:03.045Z,88.41
2019-02-02T13:30:34.230Z,88.70
2019-02-02T13:33:03.500Z,88.38
2019-02-02T13:35:34.238Z,88.01
2019-02-02T13:38:03.375Z,87.98
2019-02-02T13:40:32.445Z,88.71
2019-02-02T13:43:01.535Z,88.33
2019-02-02T13:45:30.625Z,88.78
2019-02-02T13:47:59.706Z,88.12
2019-02-02T13:50:28.811Z,88.36
2019-02-02T13:52:57.823Z,87.88
2019-02-02T13:55:26.855Z,88.61
2019-02-02T13:57:55.879Z,88.15
2019-02-02T14:00:27.763Z,88.79
2019-02-02T14:03:03.024Z,88.82
2019-02-02T14:05:28.084Z,88.36
2019-02-02T14:08:00.001Z,88.31
2019-02-02T14:10:29.962Z,87.74
2019-02-02T14:12:58.985Z,88.37
2019-02-02T14:15:28.081Z,88.43
2019-02-02T14:17:57.139Z,88.78
2019-02-02T14:20:26.169Z,89.19
2019-02-02T14:22:55.943Z,89.24
2019-02-02T14:25:24.958Z,88.93
2019-02-02T14:27:53.966Z,89.58
2019-02-02T14:30:24.579Z,89.75
2019-02-02T14:32:54.958Z,90.07
2019-02-02T14:35:26.250Z,90.03
2019-02-02T14:37:56.065Z,90.17
2019-02-02T14:40:25.295Z,90.23
2019-02-02T14:42:54.456Z,90.27
2019-02-02T14:45:27.416Z,90.41
2019-02-02T14:47:56.385Z,90.40
2019-02-02T14:50:25.953Z,90.46
2019-02-02T14:52:55.078Z,90.43
2019-02-02T14:55:29.185Z,90.70
2019-02-02T14:57:58.352Z,90.01
2019-02-02T15:00:29.205Z,90.09
2019-02-02T15:02:58.598Z,90.21
2019-02-02T15:05:27.680Z,89.93
2019-02-02T15:07:57.205Z,89.98
2019-02-02T15:10:26.418Z,90.02
2019-02-02T15:12:55.466Z,89.82
2019-02-02T15:15:24.653Z,89.83
2019-02-02T15:17:54.026Z,90.18
2019-02-02T15:20:34.644Z,90.56
2019-02-02T15:23:03.734Z,91.03
2019-02-02T15:25:32.761Z,91.67
2019-02-02T15:28:01.765Z,91.71
2019-02-02T15:30:31.121Z,91.68
2019-02-02T15:33:00.175Z,91.43
2019-02-02T15:35:29.531Z,91.20
2019-02-02T15:37:58.877Z,90.80
2019-02-02T15:40:31.248Z,90.56
2019-02-02T15:42:59.956Z,90.43
2019-02-02T15:45:29.596Z,90.20
2019-02-02T15:47:58.693Z,90.44
2019-02-02T15:50:28.139Z,90.55
2019-02-02T15:52:57.401Z,90.17
2019-02-02T15:55:27.053Z,90.41
2019-02-02T15:57:56.101Z,90.72
2019-02-02T16:00:33.067Z,91.09
2019-02-02T16:03:02.084Z,91.08
2019-02-02T16:05:31.446Z,91.68
2019-02-02T16:08:01.872Z,91.20
2019-02-02T16:10:32.164Z,91.56
2019-02-02T16:13:01.836Z,91.44
2019-02-02T16:15:34.091Z,91.28
2019-02-02T16:18:02.140Z,91.43
2019-02-02T16:20:33.737Z,90.85
2019-02-02T16:23:02.879Z,91.30
2019-02-02T16:25:32.280Z,91.65
2019-02-02T16:28:01.801Z,92.05
2019-02-02T16:30:31.107Z,91.91
2019-02-02T16:33:00.456Z,91.83
2019-02-02T16:35:29.541Z,91.53
2019-02-02T16:37:58.600Z,91.29
2019-02-02T16:40:29.774Z,91.25
2019-02-02T16:42:59.219Z,91.30
2019-02-02T16:45:29.823Z,90.90
2019-02-02T16:47:59.114Z,91.23
2019-02-02T16:50:28.422Z,90.93
2019-02-02T16:52:57.496Z,90.56
2019-02-02T16:55:26.613Z,90.58
2019-02-02T16:57:55.647Z,90.23
2019-02-02T17:00:26.496Z,90.11
2019-02-02T17:02:56.573Z,90.48
2019-02-02T17:05:26.033Z,91.02
2019-02-02T17:07:55.200Z,90.72
2019-02-02T17:10:29.349Z,90.76
2019-02-02T17:12:58.445Z,90.99
2019-02-02T17:15:27.822Z,90.92
2019-02-02T17:17:57.046Z,90.82
2019-02-02T17:20:31.985Z,90.43
2019-02-02T17:23:01.601Z,90.91
2019-02-02T17:25:30.733Z,91.02
2019-02-02T17:27:59.694Z,90.89
2019-02-02T17:30:28.716Z,90.78
2019-02-02T17:32:59.867Z,91.50
2019-02-02T17:35:29.257Z,91.80
2019-02-02T17:37:58.516Z,91.95
2019-02-02T17:40:28.195Z,91.83
2019-02-02T17:42:59.786Z,92.28
2019-02-02T17:45:29.230Z,92.40
2019-02-02T17:47:58.265Z,92.20
2019-02-02T17:50:27.465Z,92.58
2019-02-02T17:52:56.580Z,92.93
2019-02-02T17:55:25.834Z,93.11
2019-02-02T17:57:56.185Z,92.91
2019-02-02T18:00:55.491Z,92.95
2019-02-02T18:03:24.866Z,92.93
2019-02-02T18:05:53.971Z,92.36
2019-02-02T18:08:23.106Z,92.12
2019-02-02T18:10:52.125Z,92.28
2019-02-02T18:13:21.535Z,91.84
2019-02-02T18:15:51.004Z,91.83
2019-02-02T18:18:20.254Z,91.71
2019-02-02T18:20:49.283Z,91.69
2019-02-02T18:23:18.721Z,90.92
2019-02-02T18:25:48.711Z,91.45
2019-02-02T18:28:18.142Z,91.85
2019-02-02T18:30:51.051Z,91.72
2019-02-02T18:33:20.914Z,91.69
2019-02-02T18:35:50.314Z,92.02
2019-02-02T18:38:19.350Z,91.39
2019-02-02T18:40:48.395Z,91.77
2019-02-02T18:43:17.531Z,92.06
2019-02-02T18:45:46.993Z,91.45
2019-02-02T18:48:16.443Z,91.76
2019-02-02T18:50:45.487Z,91.47
2019-02-02T18:53:14.571Z,91.70
2019-02-02T18:55:50.396Z,91.53
2019-02-02T18:58:19.437Z,91.53
2019-02-02T19:00:49.180Z,91.52
2019-02-02T19:03:18.180Z,90.61
2019-02-02T19:05:47.663Z,91.16
2019-02-02T19:08:17.625Z,91.88
2019-02-02T19:10:47.249Z,92.21
2019-02-02T19:13:16.354Z,91.88
2019-02-02T19:15:45.423Z,91.83
2019-02-02T19:18:14.477Z,92.35
2019-02-02T19:20:43.513Z,92.05
2019-02-02T19:23:24.237Z,92.09
2019-02-02T19:25:44.048Z,91.73
2019-02-02T19:28:13.269Z,91.97
2019-02-02T19:30:42.377Z,91.90
2019-02-02T19:33:11.485Z,91.97
2019-02-02T19:35:40.946Z,92.23
2019-02-02T19:38:10.013Z,92.42
2019-02-02T19:40:39.423Z,92.54
2019-02-02T19:43:08.476Z,92.41
2019-02-02T19:45:37.483Z,92.87
2019-02-02T19:48:06.504Z,92.68
2019-02-02T19:50:36.024Z,92.89
2019-02-02T19:53:06.407Z,92.96
2019-02-02T19:55:35.591Z,92.51
2019-02-02T19:58:05.478Z,92.82
2019-02-02T20:00:35.555Z,92.84
2019-02-02T20:03:04.771Z,92.00
2019-02-02T20:05:34.149Z,91.57
2019-02-02T20:08:03.618Z,91.37
2019-02-02T20:10:32.811Z,91.14
2019-02-02T20:13:02.337Z,90.68
2019-02-02T20:15:31.666Z,91.17
2019-02-02T20:18:09.563Z,91.44
2019-02-02T20:20:32.568Z,91.48
2019-02-02T20:23:02.085Z,91.74
2019-02-02T20:25:31.166Z,91.75
2019-02-02T20:28:00.217Z,91.73
2019-02-02T20:30:30.781Z,92.25
2019-02-02T20:32:59.910Z,92.10
2019-02-02T20:35:40.365Z,92.34
2019-02-02T20:38:00.251Z,92.49
2019-02-02T20:40:29.311Z,92.44
2019-02-02T20:42:58.314Z,92.93
2019-02-02T20:45:30.001Z,92.82
2019-02-02T20:47:59.130Z,92.66
2019-02-02T20:50:28.670Z,92.92
2019-02-02T20:52:57.819Z,92.89
2019-02-02T20:55:31.962Z,92.96
2019-02-02T20:58:01.168Z,92.83
2019-02-02T21:00:31.047Z,92.64
2019-02-02T21:03:00.207Z,92.78
2019-02-02T21:05:31.741Z,92.63
2019-02-02T21:08:00.024Z,91.98
2019-02-02T21:10:29.218Z,92.14
2019-02-02T21:12:58.848Z,92.13
2019-02-02T21:15:28.169Z,92.46
2019-02-02T21:17:57.201Z,92.80
2019-02-02T21:20:28.121Z,93.08
2019-02-02T21:22:57.408Z,92.87
2019-02-02T21:25:26.867Z,92.81
2019-02-02T21:27:55.934Z,92.63
2019-02-02T21:30:30.367Z,92.91
2019-02-02T21:32:59.491Z,93.13
2019-02-02T21:35:28.618Z,93.35
2019-02-02T21:37:57.753Z,93.43
2019-02-02T21:40:31.548Z,93.35
2019-02-02T21:43:00.610Z,92.66
2019-02-02T21:45:30.162Z,92.33
2019-02-02T21:47:59.532Z,92.70
2019-02-02T21:50:29.215Z,92.14
2019-02-02T21:52:58.364Z,92.24
2019-02-02T21:55:28.480Z,92.42
2019-02-02T21:57:57.826Z,92.37
2019-02-02T22:00:35.401Z,91.98
2019-02-02T22:03:05.175Z,92.25
2019-02-02T22:05:34.260Z,92.48
2019-02-02T22:08:03.403Z,92.52
2019-02-02T22:10:32.644Z,92.58
2019-02-02T22:13:02.093Z,92.41
2019-02-02T22:15:31.808Z,92.04
2019-02-02T22:18:00.952Z,91.81
2019-02-02T22:20:30.124Z,91.63
2019-02-02T22:22:59.230Z,91.46
2019-02-02T22:25:29.835Z,91.58
2019-02-02T22:27:58.981Z,91.69
2019-02-02T22:30:30.083Z,91.41
2019-02-02T22:32:59.211Z,90.95
2019-02-02T22:35:28.444Z,90.84
2019-02-02T22:37:58.568Z,90.86
2019-02-02T22:40:28.593Z,90.29
2019-02-02T22:42:57.826Z,90.50
2019-02-02T22:45:26.831Z,90.67
2019-02-02T22:47:56.287Z,90.80
2019-02-02T22:50:26.632Z,90.86
2019-02-02T22:52:55.974Z,91.21
2019-02-02T22:55:25.167Z,91.37
2019-02-02T22:57:54.263Z,91.47
2019-02-02T23:01:00.261Z,91.02
2019-02-02T23:03:35.928Z,91.66
2019-02-02T23:06:26.106Z,92.00
2019-02-02T23:09:31.092Z,92.56
2019-02-02T23:12:11.860Z,92.26
2019-02-02T23:14:56.077Z,92.33
2019-02-02T23:17:25.792Z,91.99
2019-02-02T23:19:55.404Z,91.92
2019-02-02T23:22:24.531Z,91.54
2019-02-02T23:24:54.211Z,92.12
2019-02-02T23:27:23.484Z,92.15
2019-02-02T23:29:52.598Z,91.28
2019-02-02T23:32:21.683Z,91.48
2019-02-02T23:34:50.868Z,91.46
2019-02-02T23:37:19.956Z,91.25
2019-02-02T23:39:49.187Z,91.30
2019-02-02T23:42:18.239Z,91.23
2019-02-02T23:44:47.394Z,90.14
2019-02-02T23:47:16.708Z,90.39
2019-02-02T23:49:45.732Z,90.61
2019-02-02T23:52:14.836Z,89.88
2019-02-02T23:54:44.198Z,89.79
2019-02-02T23:57:13.616Z,89.26
2019-02-02T23:59:42.674Z,89.88
